sensor_id;sensor_type;location;lat;lon;timestamp;P1;durP1;ratioP1;P2;durP2;ratioP2
28427;SDS011;15662;49.128;8.520;2022-10-22T00:01:10;3.20;;;1.10;;
28427;SDS011;15662;49.128;8.520;2022-10-22T00:03:38;4.57;;;0.73;;
28427;SDS011;15662;49.128;8.520;2022-10-22T00:06:07;2.00;;;0.82;;
28427;SDS011;15662;49.128;8.520;2022-10-22T00:08:35;2.00;;;0.70;;
28427;SDS011;15662;49.128;8.520;2022-10-22T00:11:08;0.60;;;0.60;;
28427;SDS011;15662;49.128;8.520;2022-10-22T00:13:40;1.90;;;0.80;;
28427;SDS011;15662;49.128;8.520;2022-10-22T00:16:10;0.98;;;0.70;;
28427;SDS011;15662;49.128;8.520;2022-10-22T00:18:39;1.17;;;0.60;;
28427;SDS011;15662;49.128;8.520;2022-10-22T00:21:07;4.40;;;0.70;;
28427;SDS011;15662;49.128;8.520;2022-10-22T00:26:09;0.95;;;0.60;;
28427;SDS011;15662;49.128;8.520;2022-10-22T00:28:37;2.13;;;0.70;;
28427;SDS011;15662;49.128;8.520;2022-10-22T00:31:05;1.45;;;0.60;;
28427;SDS011;15662;49.128;8.520;2022-10-22T00:33:33;1.13;;;0.70;;
28427;SDS011;15662;49.128;8.520;2022-10-22T00:36:01;0.73;;;0.57;;
28427;SDS011;15662;49.128;8.520;2022-10-22T00:38:29;0.57;;;0.50;;
28427;SDS011;15662;49.128;8.520;2022-10-22T00:40:57;0.77;;;0.60;;
28427;SDS011;15662;49.128;8.520;2022-10-22T00:43:25;0.32;;;0.32;;
28427;SDS011;15662;49.128;8.520;2022-10-22T00:45:54;2.83;;;0.50;;
28427;SDS011;15662;49.128;8.520;2022-10-22T00:48:24;0.70;;;0.50;;
28427;SDS011;15662;49.128;8.520;2022-10-22T00:51:00;1.42;;;0.30;;
28427;SDS011;15662;49.128;8.520;2022-10-22T00:56:16;1.40;;;0.50;;
28427;SDS011;15662;49.128;8.520;2022-10-22T00:58:47;3.78;;;0.60;;
28427;SDS011;15662;49.128;8.520;2022-10-22T01:01:25;1.25;;;0.40;;
28427;SDS011;15662;49.128;8.520;2022-10-22T01:03:59;0.52;;;0.50;;
28427;SDS011;15662;49.128;8.520;2022-10-22T01:06:28;1.55;;;0.50;;
28427;SDS011;15662;49.128;8.520;2022-10-22T01:09:06;0.57;;;0.40;;
28427;SDS011;15662;49.128;8.520;2022-10-22T01:17:00;1.67;;;0.52;;
28427;SDS011;15662;49.128;8.520;2022-10-22T01:25:43;0.38;;;0.38;;
28427;SDS011;15662;49.128;8.520;2022-10-22T01:31:54;0.75;;;0.50;;
28427;SDS011;15662;49.128;8.520;2022-10-22T01:34:32;0.57;;;0.43;;
28427;SDS011;15662;49.128;8.520;2022-10-22T01:37:03;0.82;;;0.50;;
28427;SDS011;15662;49.128;8.520;2022-10-22T01:39:32;0.73;;;0.20;;
28427;SDS011;15662;49.128;8.520;2022-10-22T01:44:35;0.40;;;0.40;;
28427;SDS011;15662;49.128;8.520;2022-10-22T01:50:26;0.63;;;0.40;;
28427;SDS011;15662;49.128;8.520;2022-10-22T02:02:09;0.22;;;0.20;;
28427;SDS011;15662;49.128;8.520;2022-10-22T02:05:16;0.32;;;0.28;;
28427;SDS011;15662;49.128;8.520;2022-10-22T02:07:55;0.20;;;0.20;;
28427;SDS011;15662;49.128;8.520;2022-10-22T02:10:35;1.70;;;0.30;;
28427;SDS011;15662;49.128;8.520;2022-10-22T02:13:11;0.88;;;0.40;;
28427;SDS011;15662;49.128;8.520;2022-10-22T02:15:56;1.95;;;0.28;;
28427;SDS011;15662;49.128;8.520;2022-10-22T02:18:27;0.52;;;0.35;;
28427;SDS011;15662;49.128;8.520;2022-10-22T02:21:04;0.52;;;0.40;;
28427;SDS011;15662;49.128;8.520;2022-10-22T02:23:40;0.32;;;0.30;;
28427;SDS011;15662;49.128;8.520;2022-10-22T02:26:10;0.70;;;0.40;;
28427;SDS011;15662;49.128;8.520;2022-10-22T02:29:13;1.98;;;0.32;;
28427;SDS011;15662;49.128;8.520;2022-10-22T02:31:49;0.35;;;0.35;;
28427;SDS011;15662;49.128;8.520;2022-10-22T02:34:22;2.20;;;0.45;;
28427;SDS011;15662;49.128;8.520;2022-10-22T02:36:56;0.35;;;0.25;;
28427;SDS011;15662;49.128;8.520;2022-10-22T02:39:47;0.20;;;0.20;;
28427;SDS011;15662;49.128;8.520;2022-10-22T02:42:36;0.80;;;0.40;;
28427;SDS011;15662;49.128;8.520;2022-10-22T02:45:09;1.65;;;0.40;;
28427;SDS011;15662;49.128;8.520;2022-10-22T02:47:37;0.52;;;0.35;;
28427;SDS011;15662;49.128;8.520;2022-10-22T02:50:06;1.50;;;0.50;;
28427;SDS011;15662;49.128;8.520;2022-10-22T02:52:38;0.63;;;0.40;;
28427;SDS011;15662;49.128;8.520;2022-10-22T02:55:07;0.65;;;0.40;;
28427;SDS011;15662;49.128;8.520;2022-10-22T02:57:35;2.42;;;0.40;;
28427;SDS011;15662;49.128;8.520;2022-10-22T03:00:05;0.73;;;0.70;;
28427;SDS011;15662;49.128;8.520;2022-10-22T03:02:36;0.82;;;0.50;;
28427;SDS011;15662;49.128;8.520;2022-10-22T03:05:06;1.20;;;0.40;;
28427;SDS011;15662;49.128;8.520;2022-10-22T03:07:36;0.73;;;0.30;;
28427;SDS011;15662;49.128;8.520;2022-10-22T03:10:05;0.50;;;0.30;;
28427;SDS011;15662;49.128;8.520;2022-10-22T03:12:35;0.85;;;0.50;;
28427;SDS011;15662;49.128;8.520;2022-10-22T03:15:03;1.30;;;0.30;;
28427;SDS011;15662;49.128;8.520;2022-10-22T03:17:32;0.30;;;0.30;;
28427;SDS011;15662;49.128;8.520;2022-10-22T03:20:01;0.30;;;0.30;;
28427;SDS011;15662;49.128;8.520;2022-10-22T03:22:29;0.22;;;0.22;;
28427;SDS011;15662;49.128;8.520;2022-10-22T03:25:03;0.30;;;0.30;;
28427;SDS011;15662;49.128;8.520;2022-10-22T03:27:37;0.77;;;0.20;;
28427;SDS011;15662;49.128;8.520;2022-10-22T03:30:07;0.43;;;0.20;;
28427;SDS011;15662;49.128;8.520;2022-10-22T03:32:37;0.85;;;0.38;;
28427;SDS011;15662;49.128;8.520;2022-10-22T03:35:05;0.63;;;0.25;;
28427;SDS011;15662;49.128;8.520;2022-10-22T03:37:34;0.30;;;0.30;;
28427;SDS011;15662;49.128;8.520;2022-10-22T03:40:03;0.73;;;0.30;;
28427;SDS011;15662;49.128;8.520;2022-10-22T03:42:33;0.82;;;0.22;;
28427;SDS011;15662;49.128;8.520;2022-10-22T03:45:02;0.30;;;0.30;;
28427;SDS011;15662;49.128;8.520;2022-10-22T03:47:32;1.17;;;0.30;;
28427;SDS011;15662;49.128;8.520;2022-10-22T03:50:02;1.65;;;0.35;;
28427;SDS011;15662;49.128;8.520;2022-10-22T03:52:36;0.70;;;0.40;;
28427;SDS011;15662;49.128;8.520;2022-10-22T03:55:06;0.22;;;0.22;;
28427;SDS011;15662;49.128;8.520;2022-10-22T03:57:35;0.55;;;0.30;;
28427;SDS011;15662;49.128;8.520;2022-10-22T04:00:04;0.45;;;0.28;;
28427;SDS011;15662;49.128;8.520;2022-10-22T04:02:33;0.40;;;0.30;;
28427;SDS011;15662;49.128;8.520;2022-10-22T04:05:01;0.90;;;0.20;;
28427;SDS011;15662;49.128;8.520;2022-10-22T04:07:29;0.40;;;0.30;;
28427;SDS011;15662;49.128;8.520;2022-10-22T04:09:57;0.65;;;0.38;;
28427;SDS011;15662;49.128;8.520;2022-10-22T04:12:25;0.65;;;0.30;;
28427;SDS011;15662;49.128;8.520;2022-10-22T04:14:53;1.13;;;0.38;;
28427;SDS011;15662;49.128;8.520;2022-10-22T04:17:22;1.27;;;0.20;;
28427;SDS011;15662;49.128;8.520;2022-10-22T04:19:50;0.25;;;0.25;;
28427;SDS011;15662;49.128;8.520;2022-10-22T04:22:20;0.70;;;0.30;;
28427;SDS011;15662;49.128;8.520;2022-10-22T04:24:49;0.40;;;0.40;;
28427;SDS011;15662;49.128;8.520;2022-10-22T04:27:22;1.20;;;0.50;;
28427;SDS011;15662;49.128;8.520;2022-10-22T04:29:51;1.80;;;0.40;;
28427;SDS011;15662;49.128;8.520;2022-10-22T04:32:19;1.38;;;0.30;;
28427;SDS011;15662;49.128;8.520;2022-10-22T04:34:47;0.70;;;0.30;;
28427;SDS011;15662;49.128;8.520;2022-10-22T04:37:15;1.70;;;0.50;;
28427;SDS011;15662;49.128;8.520;2022-10-22T04:39:43;0.47;;;0.30;;
28427;SDS011;15662;49.128;8.520;2022-10-22T04:42:12;0.50;;;0.50;;
28427;SDS011;15662;49.128;8.520;2022-10-22T04:44:41;0.30;;;0.30;;
28427;SDS011;15662;49.128;8.520;2022-10-22T04:47:10;1.23;;;0.40;;
28427;SDS011;15662;49.128;8.520;2022-10-22T04:49:38;0.35;;;0.35;;
28427;SDS011;15662;49.128;8.520;2022-10-22T04:52:07;0.57;;;0.28;;
28427;SDS011;15662;49.128;8.520;2022-10-22T04:54:35;0.63;;;0.40;;
28427;SDS011;15662;49.128;8.520;2022-10-22T04:57:03;0.95;;;0.40;;
28427;SDS011;15662;49.128;8.520;2022-10-22T04:59:31;1.83;;;0.40;;
28427;SDS011;15662;49.128;8.520;2022-10-22T05:01:59;0.47;;;0.40;;
28427;SDS011;15662;49.128;8.520;2022-10-22T05:04:28;1.38;;;0.35;;
28427;SDS011;15662;49.128;8.520;2022-10-22T05:06:57;0.63;;;0.50;;
28427;SDS011;15662;49.128;8.520;2022-10-22T05:09:25;1.65;;;0.43;;
28427;SDS011;15662;49.128;8.520;2022-10-22T05:11:53;0.30;;;0.30;;
28427;SDS011;15662;49.128;8.520;2022-10-22T05:14:22;0.57;;;0.57;;
28427;SDS011;15662;49.128;8.520;2022-10-22T05:16:51;3.22;;;0.60;;
28427;SDS011;15662;49.128;8.520;2022-10-22T05:19:21;0.63;;;0.60;;
28427;SDS011;15662;49.128;8.520;2022-10-22T05:21:52;0.55;;;0.55;;
28427;SDS011;15662;49.128;8.520;2022-10-22T05:24:24;1.40;;;0.70;;
28427;SDS011;15662;49.128;8.520;2022-10-22T05:26:55;2.20;;;0.63;;
28427;SDS011;15662;49.128;8.520;2022-10-22T05:29:24;2.83;;;0.50;;
28427;SDS011;15662;49.128;8.520;2022-10-22T05:31:53;0.40;;;0.40;;
28427;SDS011;15662;49.128;8.520;2022-10-22T05:34:22;0.77;;;0.40;;
28427;SDS011;15662;49.128;8.520;2022-10-22T05:36:49;0.30;;;0.30;;
28427;SDS011;15662;49.128;8.520;2022-10-22T05:39:17;0.80;;;0.35;;
28427;SDS011;15662;49.128;8.520;2022-10-22T05:41:46;1.02;;;0.60;;
28427;SDS011;15662;49.128;8.520;2022-10-22T05:44:15;1.25;;;0.60;;
28427;SDS011;15662;49.128;8.520;2022-10-22T05:46:44;1.23;;;0.68;;
28427;SDS011;15662;49.128;8.520;2022-10-22T05:49:12;0.85;;;0.40;;
28427;SDS011;15662;49.128;8.520;2022-10-22T05:51:42;0.67;;;0.67;;
28427;SDS011;15662;49.128;8.520;2022-10-22T05:54:16;0.50;;;0.50;;
28427;SDS011;15662;49.128;8.520;2022-10-22T05:56:46;0.70;;;0.70;;
28427;SDS011;15662;49.128;8.520;2022-10-22T05:59:15;1.50;;;0.60;;
28427;SDS011;15662;49.128;8.520;2022-10-22T06:01:43;1.67;;;0.70;;
28427;SDS011;15662;49.128;8.520;2022-10-22T06:04:11;0.52;;;0.52;;
28427;SDS011;15662;49.128;8.520;2022-10-22T06:06:46;3.73;;;0.70;;
28427;SDS011;15662;49.128;8.520;2022-10-22T06:11:57;2.27;;;0.60;;
28427;SDS011;15662;49.128;8.520;2022-10-22T06:14:26;0.82;;;0.60;;
28427;SDS011;15662;49.128;8.520;2022-10-22T06:16:58;1.38;;;0.65;;
28427;SDS011;15662;49.128;8.520;2022-10-22T06:19:27;1.10;;;0.90;;
28427;SDS011;15662;49.128;8.520;2022-10-22T06:21:58;3.22;;;1.73;;
28427;SDS011;15662;49.128;8.520;2022-10-22T06:24:26;1.55;;;1.38;;
28427;SDS011;15662;49.128;8.520;2022-10-22T06:26:54;1.38;;;1.10;;
28427;SDS011;15662;49.128;8.520;2022-10-22T06:29:22;1.52;;;0.80;;
28427;SDS011;15662;49.128;8.520;2022-10-22T06:31:50;1.33;;;0.80;;
28427;SDS011;15662;49.128;8.520;2022-10-22T06:34:19;0.70;;;0.57;;
28427;SDS011;15662;49.128;8.520;2022-10-22T06:36:47;0.65;;;0.50;;
28427;SDS011;15662;49.128;8.520;2022-10-22T06:39:16;0.90;;;0.60;;
28427;SDS011;15662;49.128;8.520;2022-10-22T06:41:45;0.82;;;0.70;;
28427;SDS011;15662;49.128;8.520;2022-10-22T06:44:17;1.60;;;0.70;;
28427;SDS011;15662;49.128;8.520;2022-10-22T06:46:48;1.23;;;1.17;;
28427;SDS011;15662;49.128;8.520;2022-10-22T06:49:18;1.63;;;1.42;;
28427;SDS011;15662;49.128;8.520;2022-10-22T06:51:51;4.85;;;1.40;;
28427;SDS011;15662;49.128;8.520;2022-10-22T06:54:20;1.95;;;1.45;;
28427;SDS011;15662;49.128;8.520;2022-10-22T06:56:49;1.83;;;1.50;;
28427;SDS011;15662;49.128;8.520;2022-10-22T06:59:17;1.95;;;1.40;;
28427;SDS011;15662;49.128;8.520;2022-10-22T07:01:45;6.05;;;3.20;;
28427;SDS011;15662;49.128;8.520;2022-10-22T07:04:14;3.53;;;1.90;;
28427;SDS011;15662;49.128;8.520;2022-10-22T07:06:43;6.03;;;3.47;;
28427;SDS011;15662;49.128;8.520;2022-10-22T07:09:11;5.30;;;4.57;;
28427;SDS011;15662;49.128;8.520;2022-10-22T07:11:42;6.65;;;5.70;;
28427;SDS011;15662;49.128;8.520;2022-10-22T07:16:40;2.92;;;2.13;;
28427;SDS011;15662;49.128;8.520;2022-10-22T07:19:09;1.48;;;1.30;;
28427;SDS011;15662;49.128;8.520;2022-10-22T07:21:38;1.80;;;0.82;;
28427;SDS011;15662;49.128;8.520;2022-10-22T07:24:06;2.00;;;1.20;;
28427;SDS011;15662;49.128;8.520;2022-10-22T07:26:35;1.00;;;1.00;;
28427;SDS011;15662;49.128;8.520;2022-10-22T07:29:04;2.20;;;1.33;;
28427;SDS011;15662;49.128;8.520;2022-10-22T07:31:32;5.63;;;3.28;;
28427;SDS011;15662;49.128;8.520;2022-10-22T07:34:01;6.38;;;3.35;;
28427;SDS011;15662;49.128;8.520;2022-10-22T07:36:31;3.25;;;2.17;;
28427;SDS011;15662;49.128;8.520;2022-10-22T07:39:00;1.67;;;1.27;;
28427;SDS011;15662;49.128;8.520;2022-10-22T07:41:29;0.90;;;0.90;;
28427;SDS011;15662;49.128;8.520;2022-10-22T07:43:57;1.42;;;0.90;;
28427;SDS011;15662;49.128;8.520;2022-10-22T07:46:26;3.28;;;1.08;;
28427;SDS011;15662;49.128;8.520;2022-10-22T07:48:55;3.25;;;1.08;;
28427;SDS011;15662;49.128;8.520;2022-10-22T07:51:23;1.20;;;0.98;;
28427;SDS011;15662;49.128;8.520;2022-10-22T07:53:51;2.70;;;1.00;;
28427;SDS011;15662;49.128;8.520;2022-10-22T07:56:19;3.60;;;1.00;;
28427;SDS011;15662;49.128;8.520;2022-10-22T07:58:49;0.75;;;0.70;;
28427;SDS011;15662;49.128;8.520;2022-10-22T08:01:17;0.80;;;0.50;;
28427;SDS011;15662;49.128;8.520;2022-10-22T08:03:45;0.60;;;0.60;;
28427;SDS011;15662;49.128;8.520;2022-10-22T08:06:14;0.75;;;0.60;;
28427;SDS011;15662;49.128;8.520;2022-10-22T08:08:43;3.17;;;0.55;;
28427;SDS011;15662;49.128;8.520;2022-10-22T08:11:12;0.60;;;0.50;;
28427;SDS011;15662;49.128;8.520;2022-10-22T08:13:40;0.40;;;0.40;;
28427;SDS011;15662;49.128;8.520;2022-10-22T08:16:11;0.50;;;0.50;;
28427;SDS011;15662;49.128;8.520;2022-10-22T08:18:41;0.82;;;0.50;;
28427;SDS011;15662;49.128;8.520;2022-10-22T08:21:10;4.00;;;0.82;;
28427;SDS011;15662;49.128;8.520;2022-10-22T08:23:39;1.10;;;0.60;;
28427;SDS011;15662;49.128;8.520;2022-10-22T08:26:08;0.47;;;0.40;;
28427;SDS011;15662;49.128;8.520;2022-10-22T08:28:37;0.45;;;0.45;;
28427;SDS011;15662;49.128;8.520;2022-10-22T08:31:06;0.82;;;0.50;;
28427;SDS011;15662;49.128;8.520;2022-10-22T08:33:36;2.28;;;0.50;;
28427;SDS011;15662;49.128;8.520;2022-10-22T08:36:05;1.25;;;0.47;;
28427;SDS011;15662;49.128;8.520;2022-10-22T08:38:33;1.17;;;0.65;;
28427;SDS011;15662;49.128;8.520;2022-10-22T08:41:22;0.77;;;0.50;;
28427;SDS011;15662;49.128;8.520;2022-10-22T08:49:25;2.50;;;1.45;;
28427;SDS011;15662;49.128;8.520;2022-10-22T08:51:57;0.60;;;0.57;;
28427;SDS011;15662;49.128;8.520;2022-10-22T08:54:40;0.57;;;0.50;;
28427;SDS011;15662;49.128;8.520;2022-10-22T09:00:15;0.40;;;0.40;;
28427;SDS011;15662;49.128;8.520;2022-10-22T09:08:42;1.35;;;0.90;;
28427;SDS011;15662;49.128;8.520;2022-10-22T09:13:56;0.68;;;0.55;;
28427;SDS011;15662;49.128;8.520;2022-10-22T09:16:33;0.75;;;0.50;;
28427;SDS011;15662;49.128;8.520;2022-10-22T09:22:33;0.30;;;0.30;;
28427;SDS011;15662;49.128;8.520;2022-10-22T09:25:27;0.82;;;0.40;;
28427;SDS011;15662;49.128;8.520;2022-10-22T09:28:03;0.52;;;0.38;;
28427;SDS011;15662;49.128;8.520;2022-10-22T09:30:33;0.30;;;0.30;;
28427;SDS011;15662;49.128;8.520;2022-10-22T09:33:14;0.63;;;0.30;;
28427;SDS011;15662;49.128;8.520;2022-10-22T09:36:04;1.23;;;0.50;;
28427;SDS011;15662;49.128;8.520;2022-10-22T09:38:43;0.30;;;0.30;;
28427;SDS011;15662;49.128;8.520;2022-10-22T09:41:19;0.63;;;0.40;;
28427;SDS011;15662;49.128;8.520;2022-10-22T09:43:51;0.32;;;0.32;;
28427;SDS011;15662;49.128;8.520;2022-10-22T09:46:21;2.08;;;1.40;;
28427;SDS011;15662;49.128;8.520;2022-10-22T09:49:00;0.70;;;0.70;;
28427;SDS011;15662;49.128;8.520;2022-10-22T09:51:39;0.50;;;0.50;;
28427;SDS011;15662;49.128;8.520;2022-10-22T09:54:24;0.45;;;0.40;;
28427;SDS011;15662;49.128;8.520;2022-10-22T09:57:03;0.70;;;0.50;;
28427;SDS011;15662;49.128;8.520;2022-10-22T09:59:49;2.63;;;0.50;;
28427;SDS011;15662;49.128;8.520;2022-10-22T10:02:21;0.85;;;0.60;;
28427;SDS011;15662;49.128;8.520;2022-10-22T10:05:05;0.93;;;0.90;;
28427;SDS011;15662;49.128;8.520;2022-10-22T10:07:35;2.83;;;0.73;;
28427;SDS011;15662;49.128;8.520;2022-10-22T10:10:24;0.68;;;0.52;;
28427;SDS011;15662;49.128;8.520;2022-10-22T10:27:09;1.10;;;0.98;;
28427;SDS011;15662;49.128;8.520;2022-10-22T10:38:31;1.35;;;0.45;;
28427;SDS011;15662;49.128;8.520;2022-10-22T10:44:44;3.07;;;2.77;;
28427;SDS011;15662;49.128;8.520;2022-10-22T11:07:15;1.73;;;0.50;;
28427;SDS011;15662;49.128;8.520;2022-10-22T11:10:24;1.13;;;0.68;;
28427;SDS011;15662;49.128;8.520;2022-10-22T11:13:40;0.68;;;0.50;;
28427;SDS011;15662;49.128;8.520;2022-10-22T11:17:15;1.83;;;0.60;;
28427;SDS011;15662;49.128;8.520;2022-10-22T11:22:47;2.45;;;0.90;;
28427;SDS011;15662;49.128;8.520;2022-10-22T11:25:46;1.50;;;0.60;;
28427;SDS011;15662;49.128;8.520;2022-10-22T11:28:32;0.60;;;0.57;;
28427;SDS011;15662;49.128;8.520;2022-10-22T11:31:13;2.15;;;0.70;;
28427;SDS011;15662;49.128;8.520;2022-10-22T11:34:27;1.52;;;0.60;;
28427;SDS011;15662;49.128;8.520;2022-10-22T11:37:01;1.30;;;1.20;;
28427;SDS011;15662;49.128;8.520;2022-10-22T11:39:54;1.80;;;0.95;;
28427;SDS011;15662;49.128;8.520;2022-10-22T11:42:34;3.22;;;0.75;;
28427;SDS011;15662;49.128;8.520;2022-10-22T11:45:22;0.88;;;0.68;;
28427;SDS011;15662;49.128;8.520;2022-10-22T11:50:46;1.98;;;0.70;;
28427;SDS011;15662;49.128;8.520;2022-10-22T11:55:53;1.92;;;1.10;;
28427;SDS011;15662;49.128;8.520;2022-10-22T11:58:51;2.28;;;1.15;;
28427;SDS011;15662;49.128;8.520;2022-10-22T12:06:25;2.00;;;0.70;;
28427;SDS011;15662;49.128;8.520;2022-10-22T12:08:56;2.53;;;0.77;;
28427;SDS011;15662;49.128;8.520;2022-10-22T12:14:23;1.80;;;0.70;;
28427;SDS011;15662;49.128;8.520;2022-10-22T12:17:17;0.68;;;0.68;;
28427;SDS011;15662;49.128;8.520;2022-10-22T12:22:33;0.98;;;0.60;;
28427;SDS011;15662;49.128;8.520;2022-10-22T12:25:11;1.08;;;0.60;;
28427;SDS011;15662;49.128;8.520;2022-10-22T12:27:53;1.20;;;0.82;;
28427;SDS011;15662;49.128;8.520;2022-10-22T12:30:28;1.20;;;0.90;;
28427;SDS011;15662;49.128;8.520;2022-10-22T12:33:02;1.17;;;0.73;;
28427;SDS011;15662;49.128;8.520;2022-10-22T12:35:45;1.10;;;0.90;;
28427;SDS011;15662;49.128;8.520;2022-10-22T12:38:21;1.73;;;0.70;;
28427;SDS011;15662;49.128;8.520;2022-10-22T12:41:09;0.98;;;0.60;;
28427;SDS011;15662;49.128;8.520;2022-10-22T12:43:37;0.90;;;0.55;;
28427;SDS011;15662;49.128;8.520;2022-10-22T12:46:20;1.88;;;0.75;;
28427;SDS011;15662;49.128;8.520;2022-10-22T12:48:48;0.82;;;0.65;;
28427;SDS011;15662;49.128;8.520;2022-10-22T12:51:18;0.80;;;0.60;;
28427;SDS011;15662;49.128;8.520;2022-10-22T12:53:51;1.40;;;0.88;;
28427;SDS011;15662;49.128;8.520;2022-10-22T12:56:30;1.45;;;0.80;;
28427;SDS011;15662;49.128;8.520;2022-10-22T13:01:50;1.58;;;0.73;;
28427;SDS011;15662;49.128;8.520;2022-10-22T13:04:22;1.13;;;0.70;;
28427;SDS011;15662;49.128;8.520;2022-10-22T13:10:13;1.15;;;0.60;;
28427;SDS011;15662;49.128;8.520;2022-10-22T13:13:02;1.38;;;0.60;;
28427;SDS011;15662;49.128;8.520;2022-10-22T13:15:34;1.55;;;0.70;;
28427;SDS011;15662;49.128;8.520;2022-10-22T13:20:54;6.25;;;0.73;;
28427;SDS011;15662;49.128;8.520;2022-10-22T13:23:28;1.67;;;0.80;;
28427;SDS011;15662;49.128;8.520;2022-10-22T13:26:16;1.48;;;0.82;;
28427;SDS011;15662;49.128;8.520;2022-10-22T13:28:51;2.90;;;0.60;;
28427;SDS011;15662;49.128;8.520;2022-10-22T13:31:25;2.65;;;0.70;;
28427;SDS011;15662;49.128;8.520;2022-10-22T13:33:59;1.92;;;0.82;;
28427;SDS011;15662;49.128;8.520;2022-10-22T13:36:37;3.42;;;0.88;;
28427;SDS011;15662;49.128;8.520;2022-10-22T13:39:09;3.00;;;0.70;;
28427;SDS011;15662;49.128;8.520;2022-10-22T13:41:47;1.98;;;0.50;;
28427;SDS011;15662;49.128;8.520;2022-10-22T13:44:18;2.83;;;0.85;;
28427;SDS011;15662;49.128;8.520;2022-10-22T13:46:46;2.40;;;0.50;;
28427;SDS011;15662;49.128;8.520;2022-10-22T13:49:16;0.93;;;0.57;;
28427;SDS011;15662;49.128;8.520;2022-10-22T13:51:47;2.22;;;0.80;;
28427;SDS011;15662;49.128;8.520;2022-10-22T13:54:17;1.73;;;0.65;;
28427;SDS011;15662;49.128;8.520;2022-10-22T13:56:49;0.65;;;0.50;;
28427;SDS011;15662;49.128;8.520;2022-10-22T13:59:17;0.90;;;0.55;;
28427;SDS011;15662;49.128;8.520;2022-10-22T14:01:52;1.02;;;0.60;;
28427;SDS011;15662;49.128;8.520;2022-10-22T14:04:23;1.30;;;0.57;;
28427;SDS011;15662;49.128;8.520;2022-10-22T14:06:51;1.60;;;0.57;;
28427;SDS011;15662;49.128;8.520;2022-10-22T14:09:19;0.85;;;0.60;;
28427;SDS011;15662;49.128;8.520;2022-10-22T14:11:48;1.42;;;0.50;;
28427;SDS011;15662;49.128;8.520;2022-10-22T14:14:15;1.85;;;0.63;;
28427;SDS011;15662;49.128;8.520;2022-10-22T14:16:44;1.45;;;0.60;;
28427;SDS011;15662;49.128;8.520;2022-10-22T14:19:15;1.20;;;0.70;;
28427;SDS011;15662;49.128;8.520;2022-10-22T14:21:45;2.60;;;0.77;;
28427;SDS011;15662;49.128;8.520;2022-10-22T14:24:15;2.92;;;0.70;;
28427;SDS011;15662;49.128;8.520;2022-10-22T14:26:46;2.83;;;0.60;;
28427;SDS011;15662;49.128;8.520;2022-10-22T14:29:14;2.65;;;0.52;;
28427;SDS011;15662;49.128;8.520;2022-10-22T14:31:42;1.58;;;0.73;;
28427;SDS011;15662;49.128;8.520;2022-10-22T14:34:13;0.90;;;0.50;;
28427;SDS011;15662;49.128;8.520;2022-10-22T14:36:44;1.38;;;0.80;;
28427;SDS011;15662;49.128;8.520;2022-10-22T14:39:32;0.75;;;0.50;;
28427;SDS011;15662;49.128;8.520;2022-10-22T14:42:20;0.63;;;0.47;;
28427;SDS011;15662;49.128;8.520;2022-10-22T14:45:00;1.67;;;0.73;;
28427;SDS011;15662;49.128;8.520;2022-10-22T14:47:28;2.25;;;0.70;;
28427;SDS011;15662;49.128;8.520;2022-10-22T14:49:57;1.45;;;0.50;;
28427;SDS011;15662;49.128;8.520;2022-10-22T14:52:28;1.95;;;0.60;;
28427;SDS011;15662;49.128;8.520;2022-10-22T14:54:57;0.90;;;0.90;;
28427;SDS011;15662;49.128;8.520;2022-10-22T14:57:26;3.47;;;1.70;;
28427;SDS011;15662;49.128;8.520;2022-10-22T14:59:56;2.78;;;1.40;;
28427;SDS011;15662;49.128;8.520;2022-10-22T15:02:24;2.90;;;1.25;;
28427;SDS011;15662;49.128;8.520;2022-10-22T15:04:53;1.42;;;0.70;;
28427;SDS011;15662;49.128;8.520;2022-10-22T15:07:21;2.13;;;0.47;;
28427;SDS011;15662;49.128;8.520;2022-10-22T15:09:51;1.35;;;0.75;;
28427;SDS011;15662;49.128;8.520;2022-10-22T15:12:20;0.70;;;0.57;;
28427;SDS011;15662;49.128;8.520;2022-10-22T15:14:48;1.77;;;0.50;;
28427;SDS011;15662;49.128;8.520;2022-10-22T15:17:18;4.25;;;0.75;;
28427;SDS011;15662;49.128;8.520;2022-10-22T15:19:46;2.17;;;0.60;;
28427;SDS011;15662;49.128;8.520;2022-10-22T15:22:15;1.30;;;0.70;;
28427;SDS011;15662;49.128;8.520;2022-10-22T15:24:43;2.72;;;0.60;;
28427;SDS011;15662;49.128;8.520;2022-10-22T15:27:12;2.75;;;0.63;;
28427;SDS011;15662;49.128;8.520;2022-10-22T15:29:41;1.33;;;0.65;;
28427;SDS011;15662;49.128;8.520;2022-10-22T15:32:09;3.05;;;0.93;;
28427;SDS011;15662;49.128;8.520;2022-10-22T15:34:38;2.78;;;1.23;;
28427;SDS011;15662;49.128;8.520;2022-10-22T15:37:07;1.65;;;0.90;;
28427;SDS011;15662;49.128;8.520;2022-10-22T15:39:39;2.72;;;0.90;;
28427;SDS011;15662;49.128;8.520;2022-10-22T15:42:08;3.08;;;0.98;;
28427;SDS011;15662;49.128;8.520;2022-10-22T15:44:36;1.70;;;0.88;;
28427;SDS011;15662;49.128;8.520;2022-10-22T15:47:06;1.70;;;0.70;;
28427;SDS011;15662;49.128;8.520;2022-10-22T15:49:35;4.40;;;1.20;;
28427;SDS011;15662;49.128;8.520;2022-10-22T15:52:05;1.30;;;0.88;;
28427;SDS011;15662;49.128;8.520;2022-10-22T15:54:36;1.07;;;0.60;;
28427;SDS011;15662;49.128;8.520;2022-10-22T15:57:07;2.95;;;0.90;;
28427;SDS011;15662;49.128;8.520;2022-10-22T15:59:37;2.58;;;0.68;;
28427;SDS011;15662;49.128;8.520;2022-10-22T16:02:05;0.82;;;0.60;;
28427;SDS011;15662;49.128;8.520;2022-10-22T16:04:33;1.60;;;0.77;;
28427;SDS011;15662;49.128;8.520;2022-10-22T16:07:01;1.33;;;0.63;;
28427;SDS011;15662;49.128;8.520;2022-10-22T16:09:29;3.03;;;0.70;;
28427;SDS011;15662;49.128;8.520;2022-10-22T16:11:57;0.68;;;0.50;;
28427;SDS011;15662;49.128;8.520;2022-10-22T16:14:25;1.73;;;0.80;;
28427;SDS011;15662;49.128;8.520;2022-10-22T16:16:55;2.85;;;0.85;;
28427;SDS011;15662;49.128;8.520;2022-10-22T16:19:24;2.28;;;2.08;;
28427;SDS011;15662;49.128;8.520;2022-10-22T16:21:54;5.90;;;3.88;;
28427;SDS011;15662;49.128;8.520;2022-10-22T16:24:23;8.25;;;5.43;;
28427;SDS011;15662;49.128;8.520;2022-10-22T16:26:51;11.07;;;5.85;;
28427;SDS011;15662;49.128;8.520;2022-10-22T16:29:19;7.57;;;4.90;;
28427;SDS011;15662;49.128;8.520;2022-10-22T16:31:47;4.40;;;4.00;;
28427;SDS011;15662;49.128;8.520;2022-10-22T16:34:16;3.10;;;2.80;;
28427;SDS011;15662;49.128;8.520;2022-10-22T16:36:44;4.93;;;2.38;;
28427;SDS011;15662;49.128;8.520;2022-10-22T16:39:12;4.13;;;1.98;;
28427;SDS011;15662;49.128;8.520;2022-10-22T16:41:44;3.05;;;1.52;;
28427;SDS011;15662;49.128;8.520;2022-10-22T16:44:14;1.88;;;1.00;;
28427;SDS011;15662;49.128;8.520;2022-10-22T16:46:42;1.80;;;1.10;;
28427;SDS011;15662;49.128;8.520;2022-10-22T16:49:10;1.92;;;0.88;;
28427;SDS011;15662;49.128;8.520;2022-10-22T16:51:39;2.30;;;0.77;;
28427;SDS011;15662;49.128;8.520;2022-10-22T16:54:09;3.75;;;1.48;;
28427;SDS011;15662;49.128;8.520;2022-10-22T16:56:39;4.28;;;3.47;;
28427;SDS011;15662;49.128;8.520;2022-10-22T16:59:08;7.95;;;3.20;;
28427;SDS011;15662;49.128;8.520;2022-10-22T17:01:37;4.47;;;2.67;;
28427;SDS011;15662;49.128;8.520;2022-10-22T17:04:07;4.15;;;2.47;;
28427;SDS011;15662;49.128;8.520;2022-10-22T17:06:36;5.78;;;4.70;;
28427;SDS011;15662;49.128;8.520;2022-10-22T17:09:05;7.55;;;5.45;;
28427;SDS011;15662;49.128;8.520;2022-10-22T17:11:35;4.75;;;3.75;;
28427;SDS011;15662;49.128;8.520;2022-10-22T17:14:12;4.85;;;3.63;;
28427;SDS011;15662;49.128;8.520;2022-10-22T17:16:40;5.32;;;4.10;;
28427;SDS011;15662;49.128;8.520;2022-10-22T17:19:11;6.78;;;4.28;;
28427;SDS011;15662;49.128;8.520;2022-10-22T17:21:42;6.93;;;4.30;;
28427;SDS011;15662;49.128;8.520;2022-10-22T17:24:10;6.13;;;4.20;;
28427;SDS011;15662;49.128;8.520;2022-10-22T17:26:39;4.80;;;3.47;;
28427;SDS011;15662;49.128;8.520;2022-10-22T17:29:09;4.43;;;3.80;;
28427;SDS011;15662;49.128;8.520;2022-10-22T17:31:39;5.88;;;3.53;;
28427;SDS011;15662;49.128;8.520;2022-10-22T17:34:09;4.43;;;3.50;;